createdAt,value
2023-05-05T00:00:23.205Z,59.30
2023-05-05T00:05:25.400Z,59.77
2023-05-05T00:10:26.889Z,59.63
2023-05-05T00:15:28.354Z,60.17
2023-05-05T00:20:29.794Z,60.20
2023-05-05T00:25:31.423Z,59.96
2023-05-05T00:30:34.296Z,59.97
2023-05-05T00:35:35.853Z,58.93
2023-05-05T00:40:38.198Z,59.70
2023-05-05T00:45:42.824Z,59.99
2023-05-05T00:50:45.037Z,60.34
2023-05-05T00:55:46.588Z,59.48
2023-05-05T01:00:48.592Z,59.54
2023-05-05T01:06:15.312Z,61.34
2023-05-05T01:11:27.093Z,63.31
2023-05-05T01:16:31.870Z,62.64
2023-05-05T01:22:06.683Z,61.09
2023-05-05T01:27:29.810Z,59.91
2023-05-05T01:32:37.702Z,60.49
2023-05-05T01:37:54.786Z,61.27
2023-05-05T01:42:57.176Z,61.98
2023-05-05T01:48:01.332Z,62.00
2023-05-05T01:53:04.824Z,61.44
2023-05-05T01:58:07.657Z,61.79
2023-05-05T02:03:12.352Z,61.27
2023-05-05T02:08:15.788Z,61.32
2023-05-05T02:13:18.690Z,61.14
2023-05-05T02:18:22.957Z,61.37
2023-05-05T02:23:25.727Z,61.03
2023-05-05T02:28:42.235Z,61.33
2023-05-05T02:33:46.867Z,61.63
2023-05-05T02:38:53.026Z,60.75
2023-05-05T02:43:56.530Z,61.25
2023-05-05T02:48:59.724Z,62.36
2023-05-05T02:54:01.855Z,62.10
2023-05-05T02:59:14.434Z,61.31
2023-05-05T03:04:42.677Z,62.09
2023-05-05T03:09:53.420Z,62.08
2023-05-05T03:14:58.429Z,63.11
2023-05-05T03:20:04.004Z,63.05
2023-05-05T03:25:08.389Z,63.57
2023-05-05T03:30:10.640Z,63.37
2023-05-05T03:35:19.816Z,63.85
2023-05-05T03:40:29.897Z,62.78
2023-05-05T03:45:38.843Z,62.58
2023-05-05T03:50:40.780Z,63.02
2023-05-05T03:55:43.021Z,64.11
2023-05-05T04:00:46.098Z,62.89
2023-05-05T04:05:48.683Z,63.43
2023-05-05T04:10:51.114Z,63.23
2023-05-05T04:15:53.076Z,62.22
2023-05-05T04:20:54.781Z,62.34
2023-05-05T04:25:57.617Z,62.46
2023-05-05T04:31:02.530Z,62.80
2023-05-05T04:36:05.998Z,62.11
2023-05-05T04:41:07.630Z,61.80
2023-05-05T04:46:10.975Z,63.54
2023-05-05T04:51:13.293Z,65.39
2023-05-05T04:56:15.692Z,64.10
2023-05-05T05:01:17.341Z,65.82
2023-05-05T05:06:18.743Z,66.71
2023-05-05T05:11:20.223Z,66.95
2023-05-05T05:16:21.894Z,66.50
2023-05-05T05:21:23.603Z,65.09
2023-05-05T05:26:25.834Z,66.21
2023-05-05T05:31:27.452Z,66.26
2023-05-05T05:36:29.833Z,66.33
2023-05-05T05:41:31.204Z,65.53
2023-05-05T05:46:32.741Z,64.93
2023-05-05T05:51:34.186Z,65.00
2023-05-05T05:56:36.640Z,64.72
2023-05-05T06:01:38.336Z,64.62
2023-05-05T06:06:39.964Z,64.38
2023-05-05T06:11:41.385Z,62.12
2023-05-05T06:16:42.945Z,65.34
2023-05-05T06:21:48.282Z,66.87
2023-05-05T06:26:50.303Z,67.07
2023-05-05T06:31:51.969Z,66.56
2023-05-05T06:36:53.632Z,66.10
2023-05-05T06:41:55.172Z,66.38
2023-05-05T06:46:57.222Z,63.01
2023-05-05T06:51:58.724Z,63.02
2023-05-05T06:57:00.244Z,63.89
2023-05-05T07:02:01.839Z,62.09
2023-05-05T07:07:03.338Z,62.27
2023-05-05T07:12:04.980Z,62.09
2023-05-05T07:17:06.493Z,60.17
2023-05-05T07:22:08.051Z,59.61
2023-05-05T07:27:09.689Z,58.70
2023-05-05T07:32:11.267Z,58.29
2023-05-05T07:37:12.813Z,58.41
2023-05-05T07:42:14.846Z,57.88
2023-05-05T07:47:16.402Z,57.97
2023-05-05T07:52:17.909Z,58.10
2023-05-05T07:57:20.328Z,57.49
2023-05-05T08:38:50.572Z,51.85
2023-05-05T08:49:46.290Z,48.72
2023-05-05T08:54:57.130Z,51.62
2023-05-05T09:00:00.198Z,51.35
2023-05-05T09:05:05.219Z,50.26
2023-05-05T09:10:10.122Z,52.50
2023-05-05T09:15:14.147Z,55.59
2023-05-05T09:20:15.696Z,48.21
2023-05-05T09:25:18.363Z,52.50
2023-05-05T09:30:27.113Z,49.06
2023-05-05T09:35:28.823Z,54.50
2023-05-05T09:40:45.389Z,46.04
2023-05-05T09:45:49.026Z,50.79
2023-05-05T09:50:50.648Z,41.18
2023-05-05T09:56:00.961Z,44.27
2023-05-05T10:01:02.469Z,50.19
2023-05-05T10:06:04.662Z,40.92
2023-05-05T10:11:07.002Z,45.37
2023-05-05T10:16:09.608Z,43.23
2023-05-05T10:21:13.850Z,39.25
2023-05-05T10:26:17.020Z,41.44
2023-05-05T10:31:41.161Z,45.06
2023-05-05T10:36:44.963Z,43.25
2023-05-05T10:41:47.575Z,40.67
2023-05-05T10:46:49.320Z,39.07
2023-05-05T10:52:17.471Z,39.95
2023-05-05T10:57:29.750Z,40.04
2023-05-05T11:02:31.410Z,44.50
2023-05-05T11:07:34.387Z,40.37
2023-05-05T11:12:59.305Z,41.25
2023-05-05T11:18:04.835Z,45.15
2023-05-05T11:23:08.558Z,36.21
2023-05-05T11:28:12.308Z,46.04
2023-05-05T11:33:26.847Z,38.85
2023-05-05T11:38:53.046Z,38.11
2023-05-05T11:44:13.891Z,34.13
2023-05-05T11:49:26.494Z,38.69
2023-05-05T11:54:54.092Z,40.24
2023-05-05T11:59:58.873Z,46.64
2023-05-05T12:05:00.977Z,43.71
2023-05-05T12:10:02.708Z,34.96
2023-05-05T12:15:05.037Z,40.21
2023-05-05T12:20:07.540Z,48.44
2023-05-05T12:25:09.602Z,38.48
2023-05-05T12:30:16.971Z,35.29
2023-05-05T12:35:19.773Z,33.09
2023-05-05T12:40:51.799Z,37.81
2023-05-05T12:46:11.890Z,44.19
2023-05-05T12:51:20.733Z,38.86
2023-05-05T12:56:29.740Z,51.97
2023-05-05T13:01:31.765Z,40.35
2023-05-05T13:06:33.397Z,41.71
2023-05-05T13:11:37.876Z,37.83
2023-05-05T13:16:39.321Z,31.75
2023-05-05T13:21:41.648Z,43.18
2023-05-05T13:26:43.085Z,43.04
2023-05-05T13:31:45.512Z,43.06
2023-05-05T13:36:47.024Z,39.90
2023-05-05T13:41:48.522Z,41.67
2023-05-05T13:46:50.037Z,36.19
2023-05-05T13:51:51.603Z,32.01
2023-05-05T13:56:53.227Z,41.71
2023-05-05T14:01:54.725Z,33.32
2023-05-05T14:06:58.232Z,32.98
2023-05-05T14:11:59.725Z,35.83
2023-05-05T14:17:01.364Z,36.66
2023-05-05T14:22:03.154Z,38.51
2023-05-05T14:27:04.710Z,38.65
2023-05-05T14:32:06.182Z,36.06
2023-05-05T14:37:07.713Z,36.64
2023-05-05T14:42:09.343Z,36.76
2023-05-05T14:47:10.858Z,30.33
2023-05-05T14:52:12.300Z,38.88
2023-05-05T14:57:13.779Z,30.31
2023-05-05T15:02:15.884Z,37.86
2023-05-05T15:07:17.335Z,36.60
2023-05-05T15:12:18.787Z,38.83
2023-05-05T15:17:20.331Z,29.63
2023-05-05T15:22:21.791Z,30.58
2023-05-05T15:27:23.390Z,28.38
2023-05-05T15:32:24.950Z,34.12
2023-05-05T15:37:28.799Z,28.30
2023-05-05T15:42:32.643Z,36.25
2023-05-05T15:47:36.010Z,40.60
2023-05-05T15:52:37.587Z,29.81
2023-05-05T15:57:42.006Z,37.50
2023-05-05T16:02:43.567Z,37.73
2023-05-05T16:07:45.112Z,38.45
2023-05-05T16:12:46.582Z,35.94
2023-05-05T16:17:48.073Z,39.82
2023-05-05T16:22:49.529Z,39.09
2023-05-05T16:27:50.983Z,37.40
2023-05-05T16:32:58.830Z,38.53
2023-05-05T16:38:00.743Z,39.89
2023-05-05T16:43:02.167Z,39.83
2023-05-05T16:48:04.009Z,39.97
2023-05-05T16:53:06.451Z,38.73
2023-05-05T16:58:08.013Z,36.93
2023-05-05T17:03:09.473Z,40.68
2023-05-05T17:08:14.483Z,40.00
2023-05-05T17:13:16.061Z,41.22
2023-05-05T17:18:20.110Z,39.63
2023-05-05T17:23:21.566Z,40.97
2023-05-05T17:28:23.013Z,40.47
2023-05-05T17:33:24.461Z,41.53
2023-05-05T17:38:25.914Z,41.67
2023-05-05T17:43:27.367Z,40.80
2023-05-05T17:48:28.856Z,42.97
2023-05-05T17:53:30.327Z,42.61
2023-05-05T17:58:31.774Z,41.97
2023-05-05T18:03:33.328Z,41.94
2023-05-05T18:08:34.829Z,43.02
2023-05-05T18:13:36.657Z,42.49
2023-05-05T18:18:40.233Z,42.69
2023-05-05T18:23:41.839Z,42.25
2023-05-05T18:28:43.294Z,39.89
2023-05-05T18:33:46.879Z,41.93
2023-05-05T18:38:49.283Z,41.39
2023-05-05T18:43:50.718Z,42.59
2023-05-05T18:48:52.178Z,43.20
2023-05-05T18:53:53.745Z,41.88
2023-05-05T18:58:55.578Z,41.89
2023-05-05T19:03:57.057Z,42.91
2023-05-05T19:08:58.532Z,43.16
2023-05-05T19:13:59.978Z,42.60
2023-05-05T19:19:01.449Z,42.01
2023-05-05T19:24:03.002Z,43.78
2023-05-05T19:29:04.629Z,44.87
2023-05-05T19:34:06.333Z,43.76
2023-05-05T19:39:08.113Z,44.81
2023-05-05T19:44:09.573Z,46.36
2023-05-05T19:49:11.191Z,43.60
2023-05-05T19:54:12.736Z,48.26
2023-05-05T19:59:14.226Z,45.95
2023-05-05T20:04:15.686Z,48.51
2023-05-05T20:09:17.422Z,48.23
2023-05-05T20:14:18.876Z,48.44
2023-05-05T20:19:20.342Z,50.66
2023-05-05T20:24:21.811Z,50.11
2023-05-05T20:29:23.297Z,49.98
2023-05-05T20:34:25.205Z,50.71
2023-05-05T20:39:26.763Z,51.05
2023-05-05T20:44:28.220Z,47.13
2023-05-05T20:49:30.372Z,50.70
2023-05-05T20:54:35.057Z,51.49
2023-05-05T20:59:37.692Z,48.91
2023-05-05T21:04:39.138Z,54.24
2023-05-05T21:09:40.826Z,48.30
2023-05-05T21:14:48.090Z,50.69
2023-05-05T21:19:49.540Z,53.10
2023-05-05T21:24:51.186Z,52.18
2023-05-05T21:29:52.649Z,51.55
2023-05-05T21:34:54.090Z,51.92
2023-05-05T21:39:55.533Z,51.60
2023-05-05T21:44:56.968Z,54.07
2023-05-05T21:49:58.959Z,53.16
2023-05-05T21:55:00.441Z,53.00
2023-05-05T22:00:02.463Z,52.84
2023-05-05T22:05:13.953Z,53.24
2023-05-05T22:10:15.398Z,56.00
2023-05-05T22:15:19.854Z,55.08
2023-05-05T22:20:21.672Z,58.55
2023-05-05T22:25:23.129Z,55.86
2023-05-05T22:30:24.564Z,57.47
2023-05-05T22:35:26.054Z,56.60
2023-05-05T22:40:28.635Z,55.85
2023-05-05T22:45:32.409Z,55.28
2023-05-05T22:50:35.187Z,58.05
2023-05-05T22:55:36.633Z,58.65
2023-05-05T23:00:38.481Z,57.40
2023-05-05T23:05:39.921Z,61.34
2023-05-05T23:10:41.417Z,60.56
2023-05-05T23:15:43.574Z,60.31
2023-05-05T23:20:45.013Z,59.51
2023-05-05T23:25:46.669Z,57.42
2023-05-05T23:30:48.180Z,56.22
2023-05-05T23:35:51.299Z,56.08
2023-05-05T23:40:53.544Z,56.40
2023-05-05T23:45:55.015Z,57.14
2023-05-05T23:50:56.668Z,56.52
2023-05-05T23:55:58.546Z,56.44
